Terminal Aerodrome Forecast
Issued by NWS

Home | Current Version | Previous Version | Text Only | Print | Product List | Glossary On
Versions: 1 2 3 4 5 6 7 8 9 10 11 12 13 14
000
FTUS43 KEAX 030522
TAFMKC
TAF
KMKC 030522Z 0306/0406 00000KT P6SM SCT250
     FM031600 09004KT P6SM OVC110
     FM040000 10004KT P6SM VCSH OVC040
     FM040200 12004KT P6SM VCSH OVC030=

USA.gov is the U.S. government's official web portal to all federal, state and local government web resources and services.